»·PEaware :: GAWTL L71-KSFO

GAWTL :: L71-KSFO

FLIGHT INFORMATION

Flight Status: Arrived
Operator: Unknown
More flights by this operator :: More flights under this callsign
Pilot: Bruce S. (1069)
Aircraft: Unknown
(LEG2)
More flights by this aircraft type
Origin: L71 California City Mun
United States
Destination: KSFO San Francisco Intl
United States
More flights between these airports :: More routes between these airports
Route: +CZQ MOD MOD4
File this flight plan on PilotEdge
Remarks: / V /
Altitude:
(Current/Filed)
8,000ft
Speed:
(Current/Filed)
200kts
Departed: 27-Jul-13 07:24 AM
Arrived: 27-Jul-13 08:45 AM
Distance/Time
Traveled:
258nm/1:21
Distance/Time
To Go:
Arrived

Flight Plot

Page will automatically refresh every two minutes.

Flight plan parsing failed; only flown route is shown


Map Options




Map Legend


Flown Route
Filed Route
Departure Airport
Arrival Airport
Navaid (VOR, NDB)
Fix

Horizontal Profiles

Position Reports

Time Latitude Longitude Heading Altitude Ground
Speed
27-Jul-13 07:08 35.149909 -118.015465 267 2457ft 0kts
27-Jul-13 07:09 35.151118 -118.013895 75 2457ft 15kts
27-Jul-13 07:10 35.152359 -118.008466 81 2457ft 11kts
27-Jul-13 07:11 35.152889 -118.006865 346 2457ft 0kts
27-Jul-13 07:12 35.152892 -118.006865 346 2457ft 0kts
27-Jul-13 07:13 35.152894 -118.006866 346 2457ft 0kts
27-Jul-13 07:14 35.152896 -118.006866 346 2457ft 0kts
27-Jul-13 07:15 35.152898 -118.006867 346 2457ft 0kts
27-Jul-13 07:16 35.152900 -118.006868 346 2457ft 0kts
27-Jul-13 07:17 35.152902 -118.006868 346 2457ft 0kts
27-Jul-13 07:18 35.152904 -118.006869 346 2457ft 0kts
27-Jul-13 07:19 35.152906 -118.006869 346 2457ft 0kts
27-Jul-13 07:20 35.152908 -118.006870 346 2457ft 0kts
27-Jul-13 07:22 35.152912 -118.006871 346 2457ft 0kts
27-Jul-13 07:23 35.152914 -118.006872 346 2457ft 0kts
27-Jul-13 07:24 35.152916 -118.006872 346 2457ft 0kts
27-Jul-13 07:25 35.152956 -118.006883 346 2457ft 6kts
27-Jul-13 07:26 35.151150 -118.016890 253 2464ft 102kts
27-Jul-13 07:27 35.142057 -118.059702 254 3639ft 142kts
27-Jul-13 07:28 35.123420 -118.101798 225 5149ft 145kts
27-Jul-13 07:29 35.095628 -118.136725 225 6635ft 142kts
27-Jul-13 07:30 35.068459 -118.170632 224 7939ft 147kts
27-Jul-13 07:31 35.032947 -118.214606 225 8009ft 210kts
27-Jul-13 07:32 34.987954 -118.267274 219 8002ft 234kts
27-Jul-13 07:33 34.948189 -118.327114 277 8243ft 229kts
27-Jul-13 07:34 34.991306 -118.370276 332 9536ft 193kts
27-Jul-13 07:35 35.038047 -118.403440 329 10100ft 207kts
27-Jul-13 07:36 35.090379 -118.442483 329 10024ft 232kts
27-Jul-13 07:37 35.146439 -118.484594 329 10000ft 238kts
27-Jul-13 07:38 35.203148 -118.526833 329 10000ft 239kts
27-Jul-13 07:39 35.260027 -118.569261 329 10000ft 240kts
27-Jul-13 07:40 35.317156 -118.611911 329 10000ft 240kts
27-Jul-13 07:41 35.374193 -118.654362 329 10000ft 240kts
27-Jul-13 07:42 35.431237 -118.697027 329 9999ft 240kts
27-Jul-13 07:43 35.488408 -118.739883 329 9999ft 240kts
27-Jul-13 07:44 35.545667 -118.782874 329 10000ft 242kts
27-Jul-13 07:45 35.603201 -118.826156 329 10000ft 243kts
27-Jul-13 07:46 35.660285 -118.870523 328 9999ft 241kts
27-Jul-13 07:47 35.717293 -118.913866 329 9999ft 240kts
27-Jul-13 07:48 35.774416 -118.957054 329 9999ft 240kts
27-Jul-13 07:49 35.831351 -119.000170 329 10000ft 240kts
27-Jul-13 07:50 35.888248 -119.043334 329 10000ft 240kts
27-Jul-13 07:51 35.945324 -119.086708 329 10000ft 240kts
27-Jul-13 07:52 36.002186 -119.129993 329 10000ft 240kts
27-Jul-13 07:53 36.059218 -119.173483 329 10000ft 240kts
27-Jul-13 07:54 36.115789 -119.217453 328 10000ft 240kts
27-Jul-13 07:55 36.172337 -119.261502 328 10000ft 240kts
27-Jul-13 07:56 36.229415 -119.305477 328 10000ft 243kts
27-Jul-13 07:57 36.287014 -119.349727 328 10000ft 244kts
27-Jul-13 07:58 36.344770 -119.394158 328 10000ft 244kts
27-Jul-13 07:59 36.400009 -119.436729 328 10000ft 245kts
27-Jul-13 08:00 36.457769 -119.481319 328 10000ft 245kts
27-Jul-13 08:01 36.515586 -119.526033 328 10000ft 245kts
27-Jul-13 08:02 36.573739 -119.571089 328 10000ft 245kts
27-Jul-13 08:03 36.631508 -119.615926 328 10000ft 245kts
27-Jul-13 08:04 36.684653 -119.668210 307 10001ft 246kts
27-Jul-13 08:05 36.730642 -119.731265 314 10000ft 246kts
27-Jul-13 08:06 36.777444 -119.793678 313 10000ft 246kts
27-Jul-13 08:07 36.823940 -119.856196 313 10000ft 246kts
27-Jul-13 08:08 36.870311 -119.918623 313 9999ft 245kts
27-Jul-13 08:09 36.916747 -119.981258 313 10000ft 245kts
27-Jul-13 08:10 36.962958 -120.043710 312 10000ft 245kts
27-Jul-13 08:11 37.009139 -120.106242 312 10000ft 245kts
27-Jul-13 08:12 37.055440 -120.169056 312 10000ft 245kts
27-Jul-13 08:13 37.101571 -120.231763 312 10000ft 245kts
27-Jul-13 08:14 37.147787 -120.294747 312 9999ft 245kts
27-Jul-13 08:15 37.193368 -120.358058 312 10000ft 245kts
27-Jul-13 08:16 37.239234 -120.420827 312 10000ft 245kts
27-Jul-13 08:17 37.285960 -120.484679 312 9976ft 255kts
27-Jul-13 08:18 37.332816 -120.549154 312 9999ft 247kts
27-Jul-13 08:19 37.378971 -120.612650 312 9999ft 245kts
27-Jul-13 08:20 37.425135 -120.676265 312 9999ft 245kts
27-Jul-13 08:21 37.471070 -120.739695 312 10000ft 245kts
27-Jul-13 08:22 37.516967 -120.803197 312 10000ft 245kts
27-Jul-13 08:23 37.562714 -120.867237 312 10013ft 245kts
27-Jul-13 08:24 37.608397 -120.931186 312 10000ft 245kts
27-Jul-13 08:25 37.621216 -121.011080 261 10001ft 244kts
27-Jul-13 08:26 37.612048 -121.096387 261 10000ft 245kts
27-Jul-13 08:27 37.602520 -121.181457 261 10016ft 247kts
27-Jul-13 08:28 37.592635 -121.269066 261 9998ft 249kts
27-Jul-13 08:29 37.582850 -121.354772 261 9999ft 246kts
27-Jul-13 08:30 37.573032 -121.440199 261 9999ft 245kts
27-Jul-13 08:31 37.563165 -121.525463 261 9999ft 245kts
27-Jul-13 08:32 37.553305 -121.610183 261 9999ft 244kts
27-Jul-13 08:33 37.535577 -121.692167 254 9423ft 239kts
27-Jul-13 08:34 37.516824 -121.771315 254 8552ft 227kts
27-Jul-13 08:35 37.499852 -121.842410 254 7999ft 191kts
27-Jul-13 08:36 37.486274 -121.899170 254 7987ft 150kts
27-Jul-13 08:37 37.474982 -121.946329 254 7973ft 142kts
27-Jul-13 08:38 37.466745 -122.002695 285 6576ft 184kts
27-Jul-13 08:39 37.490396 -122.061500 296 4957ft 196kts
27-Jul-13 08:40 37.509258 -122.116489 328 4051ft 164kts
27-Jul-13 08:41 37.533454 -122.160075 292 3420ft 139kts
27-Jul-13 08:42 37.549618 -122.203011 297 2685ft 132kts
27-Jul-13 08:43 37.565609 -122.242716 298 2078ft 128kts
27-Jul-13 08:44 37.581671 -122.281076 297 1391ft 119kts
27-Jul-13 08:45 37.597037 -122.317731 297 742ft 113kts
27-Jul-13 08:46 37.611063 -122.351234 297 172ft 104kts
27-Jul-13 08:47 37.621352 -122.375689 296 16ft 12kts
27-Jul-13 08:48 37.622317 -122.375645 46 16ft 0kts
27-Jul-13 08:49 37.623137 -122.376257 297 16ft 14kts
27-Jul-13 08:50 37.625825 -122.381339 15 16ft 18kts
27-Jul-13 08:51 37.627000 -122.382301 209 16ft 0kts
27-Jul-13 08:52 37.626985 -122.382312 209 16ft 0kts
27-Jul-13 08:53 37.626982 -122.382314 209 16ft 0kts

Navigation Log

Ident Type
Flight plan parsing failed, navigation log unavailable